Time;durP1;ratioP1;P1;durP2;ratioP2;P2;SDS_P1;SDS_P2;PMS_P1;PMS_P2;Temp;Humidity;BMP_temperature;BMP_pressure;BME280_temperature;BME280_humidity;BME280_pressure;Samples;Min_cycle;Max_cycle;Signal;HPM_P1;HPM_P2
2022/04/13 00:01:19;;;;;;;8.70;5.00;;;;;;;1.77;71.70;102082.81;5132328;28;20027;-64
2022/04/13 00:03:46;;;;;;;9.17;4.00;;;;;;;1.76;71.44;102081.13;5132655;28;20432;-63
2022/04/13 00:06:15;;;;;;;6.43;4.47;;;;;;;1.72;71.82;102074.28;5133017;28;20512;-65
2022/04/13 00:08:55;;;;;;;8.65;4.68;;;;;;;1.72;71.58;102080.38;5115107;28;20291;-64
2022/04/13 00:11:22;;;;;;;9.47;4.57;;;;;;;1.68;71.48;102080.59;5115206;28;20035;-64
2022/04/13 00:13:49;;;;;;;6.73;4.00;;;;;;;1.61;71.75;102077.44;5136996;27;20396;-64
2022/04/13 00:16:19;;;;;;;5.17;4.30;;;;;;;1.62;71.78;102073.03;5119906;27;20787;-64
2022/04/13 00:18:47;;;;;;;7.30;4.73;;;;;;;1.61;71.92;102069.56;5119652;27;20299;-63
2022/04/13 00:21:13;;;;;;;7.23;4.10;;;;;;;1.58;72.21;102079.34;5120000;27;20276;-62
2022/04/13 00:23:41;;;;;;;7.73;4.67;;;;;;;1.52;72.58;102077.88;5138676;27;20786;-64
2022/04/13 00:26:08;;;;;;;8.52;4.53;;;;;;;1.50;72.27;102080.56;5138329;27;20027;-65
2022/04/13 00:28:34;;;;;;;7.57;4.33;;;;;;;1.48;72.00;102081.56;5138321;27;20474;-63
2022/04/13 00:31:00;;;;;;;6.67;4.53;;;;;;;1.49;72.24;102084.13;5120190;27;20276;-65
2022/04/13 00:33:30;;;;;;;5.17;3.57;;;;;;;1.48;72.13;102082.44;5119994;27;20476;-64
2022/04/13 00:35:55;;;;;;;5.47;4.90;;;;;;;1.48;72.54;102082.44;5086248;27;20309;-64
2022/04/13 00:38:22;;;;;;;6.93;4.33;;;;;;;1.49;72.75;102084.13;5103175;27;20038;-64
2022/04/13 00:40:50;;;;;;;9.20;4.43;;;;;;;1.51;72.51;102086.69;5119570;27;20791;-64
2022/04/13 00:43:16;;;;;;;7.83;4.23;;;;;;;1.51;72.63;102091.94;5137865;27;20304;-63
2022/04/13 00:45:46;;;;;;;4.40;4.00;;;;;;;1.49;72.64;102084.13;5119502;27;20789;-64
2022/04/13 00:48:34;;;;;;;6.30;4.27;;;;;;;1.47;72.81;102095.63;5119260;27;20272;-68
2022/04/13 00:51:28;;;;;;;5.03;2.57;;;;;;;1.41;73.24;102091.50;5140484;27;20268;-65
2022/04/13 00:53:59;;;;;;;4.70;2.43;;;;;;;1.38;73.38;102070.63;5138987;27;20389;-63
2022/04/13 00:56:28;;;;;;;5.00;2.50;;;;;;;1.44;73.13;102086.09;5120561;27;20362;-62
2022/04/13 00:59:09;;;;;;;8.90;2.83;;;;;;;1.45;72.95;102087.81;5119572;27;20813;-63
2022/04/13 01:02:08;;;;;;;2.70;2.07;;;;;;;1.42;73.06;102082.69;5119672;27;20284;-62
2022/04/13 01:04:36;;;;;;;7.13;2.30;;;;;;;1.21;73.12;102057.47;5081742;27;20301;-64
2022/04/13 01:07:06;;;;;;;4.87;1.90;;;;;;;1.37;72.88;102068.94;5136241;27;20047;-62
2022/04/13 01:09:32;;;;;;;4.73;2.30;;;;;;;1.39;73.32;102080.22;5135494;27;20324;-61
2022/04/13 01:11:57;;;;;;;4.83;1.93;;;;;;;1.38;73.56;102081.13;5143804;27;20273;-65
2022/04/13 01:14:23;;;;;;;4.23;2.50;;;;;;;1.34;73.50;102074.31;5119962;27;20087;-65
2022/04/13 01:16:49;;;;;;;3.30;2.07;;;;;;;1.26;73.40;102060.72;5135570;27;20043;-63
2022/04/13 01:19:17;;;;;;;5.07;2.47;;;;;;;1.23;73.52;102066.97;5135339;27;20638;-64
2022/04/13 01:21:58;;;;;;;4.73;2.40;;;;;;;1.31;73.61;102077.09;5134923;27;20061;-64
2022/04/13 01:24:25;;;;;;;2.60;2.17;;;;;;;1.23;73.52;102068.75;5134782;27;20299;-64
2022/04/13 01:26:51;;;;;;;4.53;2.50;;;;;;;1.27;73.46;102085.19;5134948;27;20272;-64
2022/04/13 01:29:17;;;;;;;3.93;2.70;;;;;;;1.20;73.45;102077.59;5136558;27;20318;-68
2022/04/13 01:31:44;;;;;;;5.30;2.77;;;;;;;1.21;74.03;102078.47;5142544;27;20039;-65
2022/04/13 01:34:13;;;;;;;4.10;2.20;;;;;;;1.21;73.98;102078.47;5135499;27;20289;-64
2022/04/13 01:36:47;;;;;;;3.10;2.50;;;;;;;1.21;73.94;102078.47;5135697;27;20269;-63
2022/04/13 01:39:20;;;;;;;4.20;2.30;;;;;;;1.17;74.22;102082.16;5135798;27;20623;-63
2022/04/13 01:41:48;;;;;;;3.00;2.27;;;;;;;1.17;74.34;102076.91;5135461;27;20269;-63
2022/04/13 01:44:15;;;;;;;3.97;2.40;;;;;;;1.18;74.14;102078.59;5134385;27;20629;-63
2022/04/13 01:46:41;;;;;;;7.43;2.57;;;;;;;1.17;74.22;102074.28;5134312;27;20811;-64
2022/04/13 01:49:06;;;;;;;4.83;3.03;;;;;;;1.12;74.43;102073.59;5134540;27;20268;-63
2022/04/13 01:51:34;;;;;;;3.93;2.53;;;;;;;1.13;74.71;102077.94;5134175;27;20756;-63
2022/04/13 01:54:00;;;;;;;3.30;2.87;;;;;;;1.12;74.83;102089.34;5134138;27;20448;-63
2022/04/13 01:56:25;;;;;;;4.03;3.00;;;;;;;1.06;74.57;102079.13;5134209;27;20117;-65
2022/04/13 01:58:51;;;;;;;5.83;3.03;;;;;;;1.07;74.58;102075.59;5134097;27;20072;-64
2022/04/13 02:01:17;;;;;;;5.30;3.80;;;;;;;0.96;75.03;102060.34;5133873;27;20031;-62
2022/04/13 02:03:43;;;;;;;6.67;4.43;;;;;;;1.03;74.84;102074.03;5137252;27;20051;-63
2022/04/13 02:06:08;;;;;;;6.60;3.90;;;;;;;1.09;75.10;102086.88;5134476;27;20300;-65
2022/04/13 02:08:34;;;;;;;4.80;4.33;;;;;;;0.88;75.61;102055.47;5134258;27;20103;-64
2022/04/13 02:11:00;;;;;;;4.47;4.03;;;;;;;0.99;75.38;102077.72;5133891;27;20035;-64
2022/04/13 02:13:30;;;;;;;5.30;4.40;;;;;;;1.00;75.87;102092.53;5133520;27;21236;-63
2022/04/13 02:15:57;;;;;;;5.57;4.53;;;;;;;0.95;75.77;102091.91;5133818;27;20039;-65
2022/04/13 02:18:22;;;;;;;6.13;5.27;;;;;;;0.95;76.31;102086.66;5134178;27;20677;-64
2022/04/13 02:20:48;;;;;;;6.60;5.40;;;;;;;0.96;76.22;102090.97;5134143;27;20035;-64
2022/04/13 02:23:14;;;;;;;5.73;5.13;;;;;;;0.98;76.44;102082.13;5133671;27;20603;-65
2022/04/13 02:25:39;;;;;;;7.50;5.50;;;;;;;0.86;76.71;102077.41;5133734;27;20035;-62
2022/04/13 02:28:06;;;;;;;6.43;5.63;;;;;;;0.91;76.66;102088.56;5133728;27;20035;-64
2022/04/13 02:30:32;;;;;;;9.77;5.27;;;;;;;0.89;76.73;102099.13;5133416;27;20030;-65
2022/04/13 02:32:58;;;;;;;7.57;5.70;;;;;;;0.85;76.58;102092.28;5133600;27;20276;-64
2022/04/13 02:35:24;;;;;;;6.27;5.43;;;;;;;0.87;77.04;102097.50;5132688;27;20289;-64
2022/04/13 02:37:49;;;;;;;9.47;5.10;;;;;;;0.86;77.05;102094.00;5133486;27;20273;-64
2022/04/13 02:40:16;;;;;;;6.33;5.50;;;;;;;0.80;76.92;102090.78;5133250;27;20490;-64
2022/04/13 02:42:42;;;;;;;10.83;5.20;;;;;;;0.79;77.40;102097.81;5133316;27;20039;-64
2022/04/13 02:45:08;;;;;;;10.10;6.50;;;;;;;0.78;77.78;102105.75;5133224;27;20263;-64
2022/04/13 02:47:35;;;;;;;16.53;5.77;;;;;;;0.77;77.64;102106.66;5133434;27;20127;-63
2022/04/13 02:50:00;;;;;;;10.43;4.97;;;;;;;0.74;76.99;102110.28;5133469;27;20277;-63
2022/04/13 02:52:52;;;;;;;11.43;6.23;;;;;;;0.73;77.32;102107.72;5133622;27;20310;-62
2022/04/13 02:55:18;;;;;;;11.47;5.80;;;;;;;0.60;77.94;102097.78;5132821;27;20299;-64
2022/04/13 02:57:43;;;;;;;12.27;6.90;;;;;;;0.74;77.38;102119.91;5133099;27;20264;-64
2022/04/13 03:00:09;;;;;;;8.47;5.47;;;;;;;0.70;77.92;102110.47;5133187;27;20031;-64
2022/04/13 03:02:35;;;;;;;9.33;6.13;;;;;;;0.75;77.30;102109.34;5114715;27;20035;-66
2022/04/13 03:05:01;;;;;;;12.43;5.93;;;;;;;0.78;77.49;102117.09;5133147;27;20265;-63
2022/04/13 03:07:29;;;;;;;12.73;5.83;;;;;;;0.61;77.65;102089.00;5133024;27;20075;-66
2022/04/13 03:09:55;;;;;;;13.73;6.68;;;;;;;0.77;77.73;102123.25;5132783;27;20043;-63
2022/04/13 03:12:20;;;;;;;11.10;5.77;;;;;;;0.79;77.63;102118.78;5132880;27;20406;-63
2022/04/13 03:14:48;;;;;;;9.73;7.47;;;;;;;0.83;77.68;102125.59;5132740;27;20059;-64
2022/04/13 03:17:15;;;;;;;8.80;5.70;;;;;;;0.68;77.51;102101.81;5133199;27;20095;-64
2022/04/13 03:19:40;;;;;;;12.13;6.97;;;;;;;0.77;77.26;102110.13;5132997;27;20035;-64
2022/04/13 03:22:05;;;;;;;10.50;5.83;;;;;;;0.80;77.27;102130.97;5132681;27;20030;-62
2022/04/13 03:24:33;;;;;;;12.13;6.40;;;;;;;0.75;77.43;102121.59;5132866;27;20148;-63
2022/04/13 03:26:59;;;;;;;9.37;5.57;;;;;;;0.80;77.61;102130.13;5132730;27;20035;-63
2022/04/13 03:29:24;;;;;;;10.37;5.40;;;;;;;0.86;77.50;102130.69;5132931;28;20268;-63
2022/04/13 03:31:50;;;;;;;11.30;6.07;;;;;;;0.73;77.67;102119.06;5132980;28;20398;-64
2022/04/13 03:34:20;;;;;;;8.23;5.80;;;;;;;0.87;77.73;102132.44;5132819;28;20039;-65
2022/04/13 03:36:47;;;;;;;8.30;6.30;;;;;;;0.92;77.20;102143.56;5114758;28;20035;-63
2022/04/13 03:39:13;;;;;;;10.63;6.23;;;;;;;0.95;77.41;102144.34;5132604;28;20351;-64
2022/04/13 03:41:39;;;;;;;14.60;7.20;;;;;;;0.98;77.96;102146.84;5132631;28;20684;-64
2022/04/13 03:44:05;;;;;;;17.73;7.33;;;;;;;1.23;77.35;102140.44;5132847;28;20296;-65
2022/04/13 03:46:31;;;;;;;14.13;7.20;;;;;;;1.86;76.09;102150.66;5134523;27;20371;-66
2022/04/13 03:48:57;;;;;;;10.53;7.63;;;;;;;2.57;73.12;102143.66;5136684;27;20293;-64
2022/04/13 03:51:23;;;;;;;12.30;6.90;;;;;;;2.97;71.37;102137.22;5136882;27;20375;-66
2022/04/13 03:53:48;;;;;;;18.73;8.00;;;;;;;3.29;70.24;102146.03;5136111;27;20088;-66
2022/04/13 03:56:14;;;;;;;8.53;7.13;;;;;;;3.40;70.10;102154.19;5136390;27;20337;-65
2022/04/13 03:58:43;;;;;;;13.13;8.07;;;;;;;2.96;70.91;102146.03;5118647;27;20031;-67
2022/04/13 04:01:09;;;;;;;12.55;7.60;;;;;;;2.57;72.58;102153.31;5136680;27;20027;-64
2022/04/13 04:03:36;;;;;;;15.10;8.73;;;;;;;2.17;74.21;102156.16;5136664;27;20141;-66
2022/04/13 04:06:02;;;;;;;10.03;7.27;;;;;;;1.80;75.98;102146.56;5136803;27;20311;-64
2022/04/13 04:08:28;;;;;;;11.93;7.87;;;;;;;1.58;76.91;102150.25;5136266;27;20349;-66
2022/04/13 04:10:54;;;;;;;10.60;8.30;;;;;;;1.42;77.61;102144.84;5136449;27;20284;-66
2022/04/13 04:13:20;;;;;;;14.10;8.57;;;;;;;1.39;78.37;102158.97;5136046;27;20042;-67
2022/04/13 04:15:56;;;;;;;11.43;7.70;;;;;;;1.33;78.39;102155.75;5137388;27;20287;-61
2022/04/13 04:18:22;;;;;;;14.93;8.97;;;;;;;1.32;78.89;102165.41;5133694;27;20318;-60
2022/04/13 04:20:48;;;;;;;16.07;9.00;;;;;;;1.35;78.45;102157.41;5119059;27;20616;-61
2022/04/13 04:23:14;;;;;;;11.80;8.73;;;;;;;1.32;78.77;102165.41;5117893;27;20771;-61
2022/04/13 04:25:52;;;;;;;15.33;8.77;;;;;;;1.29;78.96;102169.94;5136857;27;20118;-64
2022/04/13 04:28:21;;;;;;;16.30;9.67;;;;;;;1.22;79.57;102166.75;5111620;28;20080;-67
2022/04/13 04:30:46;;;;;;;19.40;10.23;;;;;;;1.22;79.13;102167.59;5115665;28;20356;-68
2022/04/13 04:33:16;;;;;;;16.87;9.73;;;;;;;1.16;79.14;102164.41;5115112;28;20407;-67
2022/04/13 04:35:45;;;;;;;15.80;11.13;;;;;;;1.18;79.91;102168.66;5098400;28;20039;-61
2022/04/13 04:38:10;;;;;;;;;;;;;;;1.23;79.47;102171.09;5115982;28;20276;-62
2022/04/13 04:40:35;;;;;;;16.87;9.70;;;;;;;1.18;79.77;102167.81;5115294;28;20296;-65
2022/04/13 04:43:01;;;;;;;16.33;9.60;;;;;;;1.14;80.07;102171.47;5097108;28;20084;-63
2022/04/13 04:45:27;;;;;;;17.60;8.70;;;;;;;1.16;80.26;102172.28;5115242;28;20060;-67
2022/04/13 04:47:53;;;;;;;18.93;9.70;;;;;;;1.02;80.41;102146.63;5114879;28;20035;-70
2022/04/13 04:50:21;;;;;;;22.97;9.70;;;;;;;1.08;80.74;102153.38;5115420;28;20032;-69
2022/04/13 04:52:47;;;;;;;31.13;13.37;;;;;;;1.22;80.55;102177.25;5116169;28;20265;-64
2022/04/13 04:55:38;;;;;;;27.53;11.07;;;;;;;1.32;80.40;102167.19;5115308;28;20654;-64
2022/04/13 04:58:03;;;;;;;24.57;10.70;;;;;;;1.39;80.46;102165.97;5113723;28;20289;-62
2022/04/13 05:00:30;;;;;;;21.07;11.80;;;;;;;1.63;79.93;102177.16;5113856;28;20027;-63
2022/04/13 05:02:56;;;;;;;25.47;10.93;;;;;;;1.88;79.37;102185.59;5114042;28;20035;-64
2022/04/13 05:05:21;;;;;;;20.93;12.03;;;;;;;2.04;78.72;102181.34;5114346;28;20616;-63
2022/04/13 05:07:48;;;;;;;28.47;13.27;;;;;;;2.14;78.16;102192.25;5114116;28;20197;-65
2022/04/13 05:10:14;;;;;;;25.53;13.83;;;;;;;2.16;78.08;102187.75;5114615;28;20031;-62
2022/04/13 05:12:45;;;;;;;24.03;13.80;;;;;;;2.09;77.90;102189.00;5114489;28;20311;-64
2022/04/13 05:15:11;;;;;;;28.20;15.10;;;;;;;2.07;78.33;102186.44;5114643;28;20309;-62
2022/04/13 05:17:37;;;;;;;25.47;14.57;;;;;;;1.98;78.05;102181.59;5114518;28;20681;-62
2022/04/13 05:20:04;;;;;;;29.83;13.60;;;;;;;2.06;78.33;102200.50;5114266;28;20250;-63
2022/04/13 05:22:30;;;;;;;27.10;13.67;;;;;;;2.07;78.46;102202.19;5114548;28;20035;-63
2022/04/13 05:25:01;;;;;;;33.00;14.23;;;;;;;2.12;78.93;102205.47;5113763;28;20669;-64
2022/04/13 05:27:26;;;;;;;30.57;16.07;;;;;;;2.07;78.59;102190.84;5113341;28;20031;-67
2022/04/13 05:29:52;;;;;;;20.90;14.60;;;;;;;1.94;78.35;102179.19;5114145;27;20265;-68
2022/04/13 05:32:17;;;;;;;27.47;14.73;;;;;;;2.18;78.56;102199.91;5134389;27;20486;-67
2022/04/13 05:34:43;;;;;;;34.03;15.00;;;;;;;2.26;78.04;102196.91;5134251;27;20042;-65
2022/04/13 05:37:11;;;;;;;34.00;15.23;;;;;;;2.30;77.99;102202.84;5135334;27;20031;-67
2022/04/13 05:39:39;;;;;;;30.00;14.07;;;;;;;2.40;77.85;102198.88;5099302;27;20037;-69
2022/04/13 05:42:05;;;;;;;22.43;11.80;;;;;;;2.51;77.37;102201.81;5134316;27;20498;-67
2022/04/13 05:44:30;;;;;;;37.03;12.90;;;;;;;2.60;77.27;102201.38;5134325;27;20265;-68
2022/04/13 05:46:56;;;;;;;21.50;11.23;;;;;;;2.66;76.88;102201.06;5135035;27;20054;-71
2022/04/13 05:49:22;;;;;;;19.80;9.63;;;;;;;2.70;76.16;102191.25;5135333;27;20080;-68
2022/04/13 05:51:47;;;;;;;20.07;9.77;;;;;;;2.75;75.96;102205.84;5134490;27;20433;-67
2022/04/13 05:54:13;;;;;;;22.30;10.27;;;;;;;2.79;75.82;102202.16;5109364;28;20453;-64
2022/04/13 05:56:39;;;;;;;25.43;9.77;;;;;;;2.87;75.76;102199.13;5113494;28;20051;-69
2022/04/13 05:59:04;;;;;;;23.90;10.10;;;;;;;2.89;75.26;102197.28;5113404;28;20356;-65
2022/04/13 06:01:30;;;;;;;25.40;10.67;;;;;;;2.94;75.27;102200.53;5113907;28;20031;-62
2022/04/13 06:03:55;;;;;;;23.37;12.07;;;;;;;2.98;74.63;102201.22;5113786;28;20394;-63
2022/04/13 06:06:25;;;;;;;25.80;9.60;;;;;;;2.91;74.65;102194.56;5113701;28;20419;-65
2022/04/13 06:08:51;;;;;;;25.67;11.80;;;;;;;2.89;75.02;102210.44;5114109;28;20076;-63
2022/04/13 06:11:16;;;;;;;18.83;9.90;;;;;;;2.98;75.23;102207.34;5114574;28;20269;-65
2022/04/13 06:13:44;;;;;;;20.23;11.00;;;;;;;3.01;74.84;102216.84;5113617;28;20087;-64
2022/04/13 06:16:10;;;;;;;26.10;9.53;;;;;;;3.10;74.74;102211.09;5114957;28;20085;-63
2022/04/13 06:18:36;;;;;;;19.73;10.77;;;;;;;3.13;74.10;102205.69;5113316;28;20594;-65
2022/04/13 06:21:02;;;;;;;22.17;10.83;;;;;;;3.24;73.89;102221.78;5111974;28;20269;-63
2022/04/13 06:23:27;;;;;;;27.30;11.03;;;;;;;3.27;73.44;102218.16;5113155;28;20040;-64
2022/04/13 06:25:53;;;;;;;25.37;10.07;;;;;;;3.37;73.73;102225.47;5113245;28;20077;-62
2022/04/13 06:28:18;;;;;;;17.43;8.77;;;;;;;3.30;73.59;102216.19;5113396;28;20042;-63
2022/04/13 06:30:43;;;;;;;30.43;10.37;;;;;;;3.29;73.29;102227.66;5113321;28;20509;-64
2022/04/13 06:33:09;;;;;;;32.17;10.17;;;;;;;3.27;73.58;102223.41;5113070;28;20038;-64
2022/04/13 06:35:35;;;;;;;22.93;10.10;;;;;;;3.25;73.28;102231.38;5113057;28;20127;-63
2022/04/13 06:38:01;;;;;;;17.40;9.77;;;;;;;3.01;73.40;102187.91;5095046;28;20036;-63
2022/04/13 06:40:26;;;;;;;18.80;10.07;;;;;;;3.24;73.90;102229.69;5094774;28;20395;-63
2022/04/13 06:42:52;;;;;;;21.43;9.00;;;;;;;3.35;73.03;102229.97;5113250;28;20032;-64
2022/04/13 06:45:17;;;;;;;22.20;9.30;;;;;;;3.29;73.22;102205.75;5112895;28;20065;-64
2022/04/13 06:47:43;;;;;;;23.10;10.00;;;;;;;3.26;73.26;102225.19;5113073;28;20040;-64
2022/04/13 06:50:10;;;;;;;17.53;10.63;;;;;;;3.31;73.31;102238.13;5112954;28;20038;-64
2022/04/13 06:52:37;;;;;;;26.93;10.77;;;;;;;3.28;73.15;102233.84;5112949;28;20115;-63
2022/04/13 06:55:04;;;;;;;23.10;9.90;;;;;;;3.40;73.80;102235.00;5112321;28;20292;-63
2022/04/13 06:57:35;;;;;;;27.33;12.27;;;;;;;3.43;73.23;102240.94;5113285;28;20768;-63
2022/04/13 07:00:02;;;;;;;16.17;9.73;;;;;;;3.32;73.65;102232.75;5114044;28;20323;-62
2022/04/13 07:02:35;;;;;;;28.70;10.90;;;;;;;3.32;73.82;102238.03;5095599;28;20360;-63
2022/04/13 07:05:05;;;;;;;22.90;11.37;;;;;;;3.36;73.57;102242.19;5113558;28;20265;-63
2022/04/13 07:07:32;;;;;;;25.37;10.67;;;;;;;3.31;73.74;102243.38;5113721;28;20351;-62
2022/04/13 07:09:58;;;;;;;35.87;11.20;;;;;;;3.27;73.53;102239.22;5113217;28;20273;-63
2022/04/13 07:12:24;;;;;;;19.90;11.23;;;;;;;3.18;73.83;102245.81;5112537;28;20277;-63
2022/04/13 07:14:51;;;;;;;16.67;10.77;;;;;;;3.19;73.54;102238.75;5093890;28;20400;-63
2022/04/13 07:17:17;;;;;;;16.57;10.13;;;;;;;3.20;73.60;102238.69;5112441;28;20288;-64
2022/04/13 07:19:42;;;;;;;18.53;10.57;;;;;;;3.18;74.01;102230.00;5112432;28;20257;-63
2022/04/13 07:22:08;;;;;;;19.33;11.60;;;;;;;3.22;74.03;102228.91;5111958;28;20038;-62
2022/04/13 07:24:34;;;;;;;20.80;10.57;;;;;;;3.23;74.06;102238.53;5112664;28;20424;-64
2022/04/13 07:27:00;;;;;;;24.07;11.83;;;;;;;3.19;73.95;102236.97;5112273;28;20473;-62
2022/04/13 07:29:25;;;;;;;20.47;11.07;;;;;;;3.25;73.70;102231.38;5112414;28;20273;-63
2022/04/13 07:31:51;;;;;;;24.10;10.57;;;;;;;3.41;74.11;102242.81;5112332;28;20032;-66
2022/04/13 07:34:16;;;;;;;26.70;11.10;;;;;;;3.51;73.72;102237.94;5112326;28;20047;-63
2022/04/13 07:36:42;;;;;;;21.37;10.37;;;;;;;3.61;73.14;102244.41;5112155;28;20058;-63
2022/04/13 07:39:07;;;;;;;20.40;9.83;;;;;;;3.70;72.92;102238.63;5112283;28;20080;-65
2022/04/13 07:41:33;;;;;;;15.33;9.03;;;;;;;3.77;72.77;102239.19;5112269;28;20402;-63
2022/04/13 07:44:00;;;;;;;21.73;10.10;;;;;;;3.78;72.60;102246.16;5112076;28;20071;-62
2022/04/13 07:46:28;;;;;;;22.00;10.03;;;;;;;3.89;72.08;102246.41;5112445;28;20070;-63
2022/04/13 07:48:54;;;;;;;20.10;10.67;;;;;;;3.94;71.77;102246.16;5112129;28;20353;-63
2022/04/13 07:51:20;;;;;;;17.70;9.87;;;;;;;4.09;71.48;102252.38;5112079;28;20296;-62
2022/04/13 07:53:45;;;;;;;24.20;10.00;;;;;;;4.04;71.24;102247.34;5112135;28;20321;-63
2022/04/13 07:56:11;;;;;;;26.27;9.17;;;;;;;4.09;71.51;102255.03;5112034;28;20035;-65
2022/04/13 07:58:37;;;;;;;21.80;9.37;;;;;;;4.17;71.65;102258.94;5112008;28;20054;-64
2022/04/13 08:01:03;;;;;;;17.20;9.17;;;;;;;4.18;71.41;102254.50;5111883;28;20040;-63
2022/04/13 08:03:28;;;;;;;17.00;9.33;;;;;;;4.19;71.47;102262.31;5111846;28;20504;-66
2022/04/13 08:05:54;;;;;;;21.37;8.33;;;;;;;4.19;70.74;102248.28;5111967;28;20262;-64
2022/04/13 08:08:20;;;;;;;25.07;10.53;;;;;;;4.33;70.86;102261.53;5112104;28;20110;-64
2022/04/13 08:10:46;;;;;;;38.40;25.33;;;;;;;4.39;70.81;102263.88;5112092;28;20118;-64
2022/04/13 08:13:12;;;;;;;18.67;8.27;;;;;;;4.25;70.27;102261.97;5111630;28;20032;-64
2022/04/13 08:15:38;;;;;;;17.10;8.60;;;;;;;4.25;70.85;102267.25;5111958;28;20301;-64
2022/04/13 08:18:04;;;;;;;16.27;6.70;;;;;;;4.36;70.80;102269.31;5111788;28;20268;-64
2022/04/13 08:20:29;;;;;;;12.37;5.83;;;;;;;4.42;70.00;102263.69;5111903;28;20119;-62
2022/04/13 08:22:54;;;;;;;15.00;6.97;;;;;;;4.54;69.66;102277.97;5115036;28;20039;-63
2022/04/13 08:25:20;;;;;;;10.53;5.37;;;;;;;4.62;69.31;102273.94;5112094;28;20482;-63
2022/04/13 08:27:45;;;;;;;15.40;6.43;;;;;;;4.72;69.11;102281.34;5111805;28;20084;-62
2022/04/13 08:30:13;;;;;;;18.67;6.87;;;;;;;4.82;68.71;102287.81;5093814;28;20067;-63
2022/04/13 08:32:39;;;;;;;23.43;7.33;;;;;;;4.94;68.56;102281.81;5093881;28;20114;-63
2022/04/13 08:35:05;;;;;;;15.00;6.33;;;;;;;4.98;68.18;102273.63;5115170;28;20292;-65
2022/04/13 08:37:35;;;;;;;14.97;5.40;;;;;;;5.13;66.99;102279.78;5115918;28;20708;-63
2022/04/13 08:40:01;;;;;;;13.93;6.97;;;;;;;5.15;67.27;102290.25;5115878;28;20270;-64
2022/04/13 08:42:46;;;;;;;20.67;4.83;;;;;;;5.16;67.32;102292.81;5115230;28;20678;-62
2022/04/13 08:45:23;;;;;;;12.90;4.43;;;;;;;5.11;66.60;102288.75;5115174;28;20028;-65
2022/04/13 08:47:56;;;;;;;14.10;4.67;;;;;;;5.18;66.52;102290.94;5115296;28;20301;-65
2022/04/13 08:50:26;;;;;;;8.10;4.87;;;;;;;5.23;66.13;102291.53;5115261;28;20836;-63
2022/04/13 08:53:14;;;;;;;8.70;4.33;;;;;;;5.39;65.72;102294.09;5115362;28;20266;-64
2022/04/13 08:55:51;;;;;;;14.00;5.18;;;;;;;5.57;64.99;102286.88;5115311;28;20299;-62
2022/04/13 08:58:35;;;;;;;8.97;3.87;;;;;;;5.58;64.67;102281.50;5115086;28;20040;-62
2022/04/13 09:01:06;;;;;;;7.60;4.03;;;;;;;5.75;64.18;102296.28;5115047;28;20295;-64
2022/04/13 09:03:46;;;;;;;7.03;4.07;;;;;;;5.64;63.54;102276.75;5114761;28;20318;-64
2022/04/13 09:06:13;;;;;;;9.40;4.00;;;;;;;5.82;62.81;102297.66;5114820;28;20357;-62
2022/04/13 09:09:01;;;;;;;13.07;4.17;;;;;;;5.95;62.92;102294.25;5114907;28;20260;-63
2022/04/13 09:11:28;;;;;;;11.45;4.05;;;;;;;6.04;62.98;102291.03;5115791;28;20311;-63
2022/04/13 09:13:56;;;;;;;17.13;5.17;;;;;;;6.20;62.09;102299.72;5097069;28;20051;-63
2022/04/13 09:16:27;;;;;;;8.83;3.63;;;;;;;6.35;61.43;102301.38;5097763;28;20690;-64
2022/04/13 09:18:54;;;;;;;7.57;3.63;;;;;;;6.40;61.02;102301.13;5115538;28;20640;-63
2022/04/13 09:21:20;;;;;;;8.03;3.67;;;;;;;6.47;60.67;102297.13;5097220;28;20356;-64
2022/04/13 09:23:46;;;;;;;11.73;3.87;;;;;;;6.55;61.18;102307.19;5096564;28;20130;-65
2022/04/13 09:26:14;;;;;;;10.80;3.20;;;;;;;6.57;61.38;102300.84;5114415;28;20039;-64
2022/04/13 09:28:39;;;;;;;6.47;3.47;;;;;;;6.62;60.36;102292.63;5114197;28;20043;-65
2022/04/13 09:31:08;;;;;;;7.50;3.43;;;;;;;6.74;60.05;102303.28;5114882;28;20040;-64
2022/04/13 09:33:34;;;;;;;15.73;4.70;;;;;;;6.89;60.02;102301.41;5114729;28;20387;-63
2022/04/13 09:35:59;;;;;;;12.43;3.20;;;;;;;6.99;58.61;102297.22;5095876;28;20039;-63
2022/04/13 09:38:26;;;;;;;4.43;2.00;;;;;;;6.90;57.17;102303.09;5114615;28;20100;-62
2022/04/13 09:40:52;;;;;;;17.60;3.20;;;;;;;6.93;57.25;102308.19;5113906;28;20080;-65
2022/04/13 09:43:19;;;;;;;10.43;2.83;;;;;;;7.01;57.10;102300.59;5095846;28;20031;-65
2022/04/13 09:45:47;;;;;;;9.00;3.13;;;;;;;7.11;56.81;102301.69;5113505;28;20039;-67
2022/04/13 09:48:18;;;;;;;9.87;3.10;;;;;;;7.22;57.04;102302.75;5114067;28;20028;-65
2022/04/13 09:50:45;;;;;;;10.03;2.43;;;;;;;7.29;55.75;102309.34;5113906;28;20554;-63
2022/04/13 09:53:13;;;;;;;10.17;2.47;;;;;;;7.35;55.08;102309.78;5114121;28;20031;-64
2022/04/13 09:55:45;;;;;;;5.63;2.43;;;;;;;7.32;54.86;102315.31;5113709;28;20046;-64
2022/04/13 09:58:12;;;;;;;9.77;2.77;;;;;;;7.28;53.87;102305.00;5113711;28;20035;-64
2022/04/13 10:00:39;;;;;;;6.40;2.27;;;;;;;7.30;54.50;102311.91;5113820;28;20046;-64
2022/04/13 10:03:11;;;;;;;10.82;3.40;;;;;;;7.37;53.71;102312.34;5113745;28;20126;-64
2022/04/13 10:05:37;;;;;;;11.40;2.57;;;;;;;7.30;53.75;102303.09;5113737;28;20123;-65
2022/04/13 10:08:05;;;;;;;10.13;2.57;;;;;;;7.43;53.38;102311.91;5095816;28;20394;-64
2022/04/13 10:10:31;;;;;;;8.85;1.90;;;;;;;7.47;52.63;102314.25;5113554;28;20056;-65
2022/04/13 10:12:57;;;;;;;4.37;2.30;;;;;;;7.52;51.68;102313.94;5113303;28;20484;-64
2022/04/13 10:15:23;;;;;;;6.37;2.13;;;;;;;7.54;52.19;102320.00;5113089;28;20056;-65
2022/04/13 10:17:49;;;;;;;6.67;2.10;;;;;;;7.55;51.50;102315.53;5113459;28;20071;-64
2022/04/13 10:20:15;;;;;;;7.63;1.73;;;;;;;7.61;50.79;102323.06;5113441;28;20075;-64
2022/04/13 10:23:00;;;;;;;4.90;2.43;;;;;;;7.68;50.51;102322.53;5113581;28;20034;-65
2022/04/13 10:25:27;;;;;;;5.57;2.13;;;;;;;7.71;49.34;102317.00;5113188;28;20039;-67
2022/04/13 10:27:57;;;;;;;5.90;2.50;;;;;;;7.69;48.59;102324.22;5113248;28;20099;-64
2022/04/13 10:30:26;;;;;;;9.13;2.37;;;;;;;7.77;49.04;102323.69;5113413;28;20127;-63
2022/04/13 10:33:05;;;;;;;16.20;1.80;;;;;;;7.68;48.34;102290.72;5113094;28;20130;-64
2022/04/13 10:35:38;;;;;;;4.70;1.87;;;;;;;7.82;48.43;102302.19;5113192;28;20126;-63
2022/04/13 10:38:04;;;;;;;3.63;1.30;;;;;;;7.93;48.41;102297.81;5113313;28;20027;-65
2022/04/13 10:40:31;;;;;;;8.40;1.63;;;;;;;8.05;47.06;102307.53;5113167;28;20047;-66
2022/04/13 10:43:02;;;;;;;3.57;1.20;;;;;;;8.04;47.09;102307.66;5112793;28;20046;-64
2022/04/13 10:45:29;;;;;;;5.57;1.87;;;;;;;8.07;46.80;102302.97;5112984;28;20085;-63
2022/04/13 10:47:59;;;;;;;5.70;1.70;;;;;;;8.17;46.11;102318.25;5113242;28;20070;-64
2022/04/13 10:50:49;;;;;;;11.03;3.00;;;;;;;8.21;46.04;102315.28;5112514;28;20112;-63
2022/04/13 10:53:15;;;;;;;3.70;1.33;;;;;;;8.34;46.80;102309.94;5113148;28;20555;-63
2022/04/13 10:55:42;;;;;;;3.87;1.20;;;;;;;8.49;46.45;102308.00;5112020;28;20070;-64
2022/04/13 10:58:11;;;;;;;6.87;1.93;;;;;;;8.61;45.69;102323.03;5112748;28;20114;-64
2022/04/13 11:00:38;;;;;;;5.30;1.57;;;;;;;8.65;44.52;102311.22;5112391;28;20035;-67
2022/04/13 11:03:05;;;;;;;5.07;1.07;;;;;;;8.60;42.87;102322.19;5112633;28;20122;-65
2022/04/13 11:05:32;;;;;;;4.63;1.15;;;;;;;8.58;42.90;102320.63;5112480;28;20092;-65
2022/04/13 11:08:30;;;;;;;1.13;1.00;;;;;;;8.57;44.35;102310.94;5112822;28;20043;-64
2022/04/13 11:10:56;;;;;;;3.30;0.90;;;;;;;8.57;43.29;102321.56;5111804;28;20055;-64
2022/04/13 11:13:23;;;;;;;4.23;1.93;;;;;;;8.55;43.89;102318.19;5112005;28;20040;-63
2022/04/13 11:15:52;;;;;;;2.88;1.20;;;;;;;8.54;43.73;102319.16;5112467;28;20059;-63
2022/04/13 11:18:20;;;;;;;4.93;1.37;;;;;;;8.55;44.46;102326.16;5112474;28;20096;-64
2022/04/13 11:21:05;;;;;;;6.43;1.23;;;;;;;8.59;43.83;102314.34;5112505;28;20496;-64
2022/04/13 11:23:50;;;;;;;7.87;1.50;;;;;;;8.70;43.47;102314.44;5112292;28;20088;-64
2022/04/13 11:26:33;;;;;;;3.97;1.33;;;;;;;8.77;43.14;102302.38;5112327;28;20040;-64
2022/04/13 11:29:17;;;;;;;10.97;2.47;;;;;;;8.96;43.38;102312.47;5112753;28;20060;-64
2022/04/13 11:32:13;;;;;;;8.43;2.03;;;;;;;9.00;42.62;102304.19;5112876;28;20517;-63